createdAt,value
2022-07-29T00:02:16.357Z,57.56
2022-07-29T00:04:43.055Z,57.77
2022-07-29T00:07:09.741Z,58.06
2022-07-29T00:09:51.220Z,58.19
2022-07-29T00:12:21.413Z,58.24
2022-07-29T00:14:56.737Z,58.20
2022-07-29T00:17:24.706Z,58.29
2022-07-29T00:19:51.561Z,58.33
2022-07-29T00:22:18.299Z,58.37
2022-07-29T00:24:44.935Z,58.29
2022-07-29T00:27:11.548Z,58.19
2022-07-29T00:29:38.169Z,58.08
2022-07-29T00:32:07.941Z,58.01
2022-07-29T00:34:53.276Z,57.99
2022-07-29T00:37:19.955Z,58.22
2022-07-29T00:39:46.580Z,58.25
2022-07-29T00:42:15.291Z,58.39
2022-07-29T00:44:42.872Z,58.55
2022-07-29T00:47:11.720Z,58.84
2022-07-29T00:49:40.172Z,59.05
2022-07-29T00:52:08.331Z,59.09
2022-07-29T00:54:37.152Z,59.68
2022-07-29T00:57:12.315Z,59.34
2022-07-29T00:59:39.090Z,59.89
2022-07-29T01:02:05.819Z,60.00
2022-07-29T01:04:33.127Z,59.99
2022-07-29T01:07:03.081Z,60.02
2022-07-29T01:09:43.117Z,60.21
2022-07-29T01:12:14.540Z,60.15
2022-07-29T01:14:41.696Z,59.93
2022-07-29T01:17:26.808Z,59.93
2022-07-29T01:20:07.098Z,60.09
2022-07-29T01:23:04.284Z,60.10
2022-07-29T01:25:53.145Z,60.03
2022-07-29T01:28:44.220Z,59.85
2022-07-29T01:31:24.950Z,60.30
2022-07-29T01:33:58.747Z,60.23
2022-07-29T01:36:36.243Z,60.20
2022-07-29T01:39:11.222Z,60.13
2022-07-29T01:41:44.366Z,60.45
2022-07-29T01:44:21.226Z,60.54
2022-07-29T01:46:55.185Z,60.56
2022-07-29T01:49:28.370Z,60.67
2022-07-29T01:52:08.743Z,60.75
2022-07-29T01:54:46.629Z,60.62
2022-07-29T01:57:18.708Z,60.81
2022-07-29T01:59:47.522Z,60.51
2022-07-29T02:02:17.808Z,60.98
2022-07-29T02:04:49.503Z,61.16
2022-07-29T02:07:20.394Z,61.13
2022-07-29T02:09:49.008Z,61.29
2022-07-29T02:12:18.785Z,61.39
2022-07-29T02:14:48.804Z,61.24
2022-07-29T02:17:20.585Z,61.48
2022-07-29T02:19:48.658Z,61.32
2022-07-29T02:22:17.148Z,61.61
2022-07-29T02:24:45.597Z,61.48
2022-07-29T02:27:14.119Z,61.46
2022-07-29T02:29:41.204Z,61.38
2022-07-29T02:32:12.251Z,61.43
2022-07-29T02:34:41.093Z,61.64
2022-07-29T02:37:10.527Z,61.73
2022-07-29T02:39:38.528Z,61.70
2022-07-29T02:42:09.104Z,61.71
2022-07-29T02:44:36.111Z,62.19
2022-07-29T02:47:05.497Z,62.07
2022-07-29T02:49:42.160Z,62.02
2022-07-29T02:52:24.205Z,61.75
2022-07-29T02:55:11.879Z,61.92
2022-07-29T02:57:54.917Z,62.12
2022-07-29T03:00:24.795Z,62.13
2022-07-29T03:02:55.220Z,61.96
2022-07-29T03:05:23.646Z,62.27
2022-07-29T03:08:04.276Z,62.42
2022-07-29T03:10:32.229Z,62.27
2022-07-29T03:12:59.807Z,62.24
2022-07-29T03:15:27.174Z,62.26
2022-07-29T03:17:54.852Z,62.81
2022-07-29T03:20:22.005Z,62.90
2022-07-29T03:22:48.871Z,62.69
2022-07-29T03:25:18.568Z,62.62
2022-07-29T03:27:45.955Z,62.63
2022-07-29T03:30:18.364Z,62.68
2022-07-29T03:32:52.223Z,62.94
2022-07-29T03:35:22.361Z,62.75
2022-07-29T03:37:49.437Z,63.39
2022-07-29T03:40:22.904Z,63.23
2022-07-29T03:42:51.846Z,63.21
2022-07-29T03:45:19.880Z,63.28
2022-07-29T03:48:03.341Z,63.01
2022-07-29T03:50:31.856Z,62.98
2022-07-29T03:52:59.241Z,63.34
2022-07-29T03:55:27.034Z,62.97
2022-07-29T03:57:54.484Z,63.34
2022-07-29T04:00:21.501Z,63.06
2022-07-29T04:02:49.962Z,63.26
2022-07-29T04:05:19.715Z,63.46
2022-07-29T04:07:48.026Z,63.23
2022-07-29T04:10:16.697Z,63.33
2022-07-29T04:12:43.829Z,63.46
2022-07-29T04:15:11.041Z,63.06
2022-07-29T04:17:38.215Z,63.27
2022-07-29T04:20:05.881Z,63.41
2022-07-29T04:22:32.507Z,63.45
2022-07-29T04:25:03.538Z,63.51
2022-07-29T04:27:30.698Z,63.57
2022-07-29T04:29:57.668Z,63.35
2022-07-29T04:32:27.982Z,63.36
2022-07-29T04:34:54.657Z,63.54
2022-07-29T04:37:21.259Z,63.45
2022-07-29T04:39:47.859Z,63.58
2022-07-29T04:42:14.570Z,63.49
2022-07-29T04:44:43.104Z,63.41
2022-07-29T04:47:10.166Z,63.13
2022-07-29T04:49:39.414Z,63.16
2022-07-29T04:52:06.958Z,63.24
2022-07-29T04:54:34.274Z,63.08
2022-07-29T04:57:00.949Z,63.06
2022-07-29T04:59:28.134Z,63.35
2022-07-29T05:01:54.929Z,63.12
2022-07-29T05:04:21.630Z,63.15
2022-07-29T05:06:48.692Z,63.15
2022-07-29T05:09:15.344Z,63.27
2022-07-29T05:11:41.946Z,63.06
2022-07-29T05:14:08.663Z,63.16
2022-07-29T05:16:35.364Z,63.05
2022-07-29T05:19:02.150Z,63.05
2022-07-29T05:21:28.842Z,63.00
2022-07-29T05:23:55.451Z,63.08
2022-07-29T05:26:22.030Z,63.13
2022-07-29T05:28:48.723Z,63.19
2022-07-29T05:31:15.897Z,63.14
2022-07-29T05:33:42.918Z,63.14
2022-07-29T05:36:09.749Z,62.93
2022-07-29T05:38:37.180Z,63.03
2022-07-29T05:41:04.981Z,63.15
2022-07-29T05:43:31.617Z,63.00
2022-07-29T05:45:58.971Z,62.95
2022-07-29T05:48:25.805Z,63.03
2022-07-29T05:50:52.513Z,62.76
2022-07-29T05:53:20.538Z,62.78
2022-07-29T05:55:48.577Z,62.70
2022-07-29T05:58:15.660Z,62.71
2022-07-29T06:00:42.281Z,62.47
2022-07-29T06:03:08.926Z,62.24
2022-07-29T06:05:35.592Z,62.20
2022-07-29T06:08:02.398Z,61.91
2022-07-29T06:10:29.004Z,61.68
2022-07-29T06:12:55.649Z,61.41
2022-07-29T06:15:22.327Z,60.76
2022-07-29T06:18:00.777Z,60.29
2022-07-29T06:20:32.390Z,59.66
2022-07-29T06:22:59.506Z,59.60
2022-07-29T06:25:26.264Z,58.83
2022-07-29T06:27:53.397Z,58.60
2022-07-29T06:30:20.121Z,57.96
2022-07-29T06:32:46.749Z,57.30
2022-07-29T06:35:38.384Z,57.05
2022-07-29T06:38:00.092Z,56.86
2022-07-29T06:40:46.225Z,56.70
2022-07-29T06:43:12.840Z,56.34
2022-07-29T06:45:42.519Z,56.00
2022-07-29T06:48:10.207Z,55.27
2022-07-29T06:50:36.983Z,54.94
2022-07-29T06:53:04.263Z,54.05
2022-07-29T06:55:30.926Z,53.60
2022-07-29T06:57:57.582Z,53.22
2022-07-29T07:00:24.303Z,52.88
2022-07-29T07:02:51.004Z,52.72
2022-07-29T07:05:17.638Z,52.08
2022-07-29T07:07:44.252Z,52.17
2022-07-29T07:10:10.988Z,51.75
2022-07-29T07:12:37.744Z,51.57
2022-07-29T07:15:04.866Z,51.55
2022-07-29T07:17:31.492Z,51.06
2022-07-29T07:19:58.129Z,51.01
2022-07-29T07:22:24.776Z,50.37
2022-07-29T07:24:51.416Z,50.20
2022-07-29T07:27:18.128Z,49.87
2022-07-29T07:29:44.773Z,49.60
2022-07-29T07:32:11.585Z,49.39
2022-07-29T07:34:39.103Z,49.40
2022-07-29T07:37:06.674Z,49.61
2022-07-29T07:39:33.387Z,49.32
2022-07-29T07:42:00.093Z,49.02
2022-07-29T07:44:26.900Z,48.67
2022-07-29T07:46:54.625Z,48.55
2022-07-29T07:49:21.857Z,48.23
2022-07-29T07:51:50.664Z,47.92
2022-07-29T07:54:18.926Z,47.87
2022-07-29T07:56:50.000Z,47.80
2022-07-29T07:59:19.932Z,47.88
2022-07-29T08:01:47.872Z,47.89
2022-07-29T08:04:27.286Z,47.26
2022-07-29T08:06:56.418Z,47.05
2022-07-29T08:09:29.714Z,47.08
2022-07-29T08:11:59.314Z,47.20
2022-07-29T08:14:26.159Z,47.40
2022-07-29T08:16:52.852Z,47.23
2022-07-29T08:19:19.744Z,46.91
2022-07-29T08:21:46.616Z,46.76
2022-07-29T08:24:31.943Z,46.59
2022-07-29T08:26:58.637Z,46.02
2022-07-29T08:29:25.313Z,45.62
2022-07-29T08:31:52.300Z,45.96
2022-07-29T08:34:19.121Z,46.23
2022-07-29T08:36:53.689Z,46.04
2022-07-29T08:39:20.291Z,45.35
2022-07-29T08:41:57.032Z,45.52
2022-07-29T08:44:30.554Z,45.17
2022-07-29T08:46:58.170Z,44.59
2022-07-29T08:49:25.089Z,44.43
2022-07-29T08:51:52.571Z,44.53
2022-07-29T08:54:21.006Z,44.77
2022-07-29T08:56:50.998Z,44.84
2022-07-29T08:59:22.136Z,44.47
2022-07-29T09:01:53.990Z,43.91
2022-07-29T09:04:21.670Z,42.77
2022-07-29T09:06:50.522Z,42.36
2022-07-29T09:09:17.687Z,42.15
2022-07-29T09:11:44.574Z,42.82
2022-07-29T09:14:13.596Z,42.83
2022-07-29T09:16:55.326Z,42.34
2022-07-29T09:19:22.015Z,41.94
2022-07-29T09:22:00.591Z,42.20
2022-07-29T09:24:44.984Z,42.38
2022-07-29T09:27:13.376Z,42.13
2022-07-29T09:29:40.324Z,42.00
2022-07-29T09:32:10.964Z,42.04
2022-07-29T09:34:38.163Z,42.27
2022-07-29T09:37:07.809Z,42.46
2022-07-29T09:39:39.019Z,42.25
2022-07-29T09:42:07.088Z,42.17
2022-07-29T09:44:52.931Z,42.18
2022-07-29T09:47:20.208Z,42.23
2022-07-29T09:49:54.247Z,42.20
2022-07-29T09:52:22.299Z,41.77
2022-07-29T09:54:48.919Z,41.88
2022-07-29T09:57:30.563Z,41.98
2022-07-29T10:00:01.755Z,41.76
2022-07-29T10:02:33.743Z,41.52
2022-07-29T10:05:02.551Z,41.27
2022-07-29T10:07:48.361Z,41.38
2022-07-29T10:10:26.867Z,40.87
2022-07-29T10:13:09.829Z,40.35
2022-07-29T10:15:42.055Z,40.60
2022-07-29T10:18:09.853Z,40.75
2022-07-29T10:20:37.001Z,40.01
2022-07-29T10:23:03.873Z,39.69
2022-07-29T10:25:30.711Z,39.39
2022-07-29T10:27:57.400Z,39.33
2022-07-29T10:30:26.143Z,39.13
2022-07-29T10:33:28.149Z,38.95
2022-07-29T10:36:16.448Z,39.64
2022-07-29T10:38:51.138Z,39.55
2022-07-29T10:41:53.966Z,39.61
2022-07-29T10:44:24.043Z,39.34
2022-07-29T10:46:52.253Z,39.27
2022-07-29T10:49:26.109Z,38.84
2022-07-29T10:52:01.896Z,38.75
2022-07-29T10:54:37.420Z,37.99
2022-07-29T10:57:52.649Z,37.13
2022-07-29T11:00:16.824Z,36.99
2022-07-29T11:02:45.674Z,37.25
2022-07-29T11:05:13.965Z,37.57
2022-07-29T11:08:19.486Z,37.54
2022-07-29T11:10:47.011Z,37.61
2022-07-29T11:13:44.772Z,37.67
2022-07-29T11:16:16.139Z,36.84
2022-07-29T11:19:11.373Z,37.11
2022-07-29T11:21:53.466Z,37.60
2022-07-29T11:24:28.801Z,37.04
2022-07-29T11:27:13.253Z,36.71
2022-07-29T11:29:52.152Z,36.84
2022-07-29T11:32:25.698Z,36.79
2022-07-29T11:35:37.865Z,36.85
2022-07-29T11:38:23.745Z,36.16
2022-07-29T11:41:19.026Z,36.30
2022-07-29T11:43:50.787Z,36.70
2022-07-29T11:46:39.551Z,37.04
2022-07-29T11:49:09.189Z,36.74
2022-07-29T11:51:38.165Z,36.35
2022-07-29T11:54:27.216Z,35.68
2022-07-29T11:56:54.392Z,35.16
2022-07-29T11:59:22.236Z,34.72
2022-07-29T12:02:33.373Z,34.43
2022-07-29T12:04:57.884Z,34.86
2022-07-29T12:07:34.799Z,35.00
2022-07-29T12:10:03.128Z,34.33
2022-07-29T12:12:29.755Z,34.42
2022-07-29T12:14:56.470Z,34.49
2022-07-29T12:17:30.578Z,35.01
2022-07-29T12:20:00.676Z,34.82
2022-07-29T12:22:34.764Z,34.91
2022-07-29T12:25:30.328Z,34.56
2022-07-29T12:28:02.548Z,34.75
2022-07-29T12:30:47.062Z,34.15
2022-07-29T12:33:20.904Z,34.21
2022-07-29T12:36:06.767Z,33.89
2022-07-29T12:38:37.784Z,33.94
2022-07-29T12:41:05.009Z,33.70
2022-07-29T12:43:32.495Z,33.31
2022-07-29T12:46:12.230Z,33.39
2022-07-29T12:48:44.044Z,33.15
2022-07-29T12:51:13.361Z,33.14
2022-07-29T12:53:40.488Z,32.73
2022-07-29T12:56:41.294Z,32.65
2022-07-29T12:59:22.702Z,32.59
2022-07-29T13:01:51.990Z,32.48
2022-07-29T13:04:28.659Z,32.56
2022-07-29T13:07:07.068Z,32.09
2022-07-29T13:09:39.343Z,31.89
2022-07-29T13:12:11.616Z,32.12
2022-07-29T13:14:40.956Z,31.43
2022-07-29T13:17:10.878Z,29.71
2022-07-29T13:20:05.739Z,29.83
2022-07-29T13:22:35.701Z,30.62
2022-07-29T13:25:03.581Z,29.96
2022-07-29T13:27:37.351Z,29.63
2022-07-29T13:30:09.872Z,29.67
2022-07-29T13:32:37.513Z,29.18
2022-07-29T13:35:09.338Z,29.03
2022-07-29T13:37:39.632Z,29.17
2022-07-29T13:40:10.796Z,28.36
2022-07-29T13:42:38.303Z,28.26
2022-07-29T13:45:05.987Z,27.88
2022-07-29T13:47:33.346Z,28.76
2022-07-29T13:50:01.861Z,28.50
2022-07-29T13:52:28.776Z,27.63
2022-07-29T13:54:55.359Z,27.78
2022-07-29T13:57:22.043Z,27.41
2022-07-29T13:59:53.771Z,27.83
2022-07-29T14:02:21.043Z,28.24
2022-07-29T14:04:47.825Z,28.17
2022-07-29T14:07:16.221Z,28.06
2022-07-29T14:09:43.551Z,28.28
2022-07-29T14:12:10.440Z,28.10
2022-07-29T14:14:37.775Z,27.41
2022-07-29T14:17:07.559Z,27.05
2022-07-29T14:19:36.801Z,27.66
2022-07-29T14:22:05.204Z,27.15
2022-07-29T14:24:32.501Z,27.43
2022-07-29T14:27:03.073Z,27.47
2022-07-29T14:29:37.083Z,26.93
2022-07-29T14:32:06.295Z,26.30
2022-07-29T14:34:34.466Z,26.34
2022-07-29T14:37:01.206Z,26.39
2022-07-29T14:39:31.987Z,26.98
2022-07-29T14:41:59.446Z,26.55
2022-07-29T14:44:32.154Z,26.03
2022-07-29T14:47:07.616Z,26.29
2022-07-29T14:49:35.285Z,25.96
2022-07-29T14:52:02.172Z,25.78
2022-07-29T14:54:28.783Z,26.30
2022-07-29T14:56:58.187Z,26.74
2022-07-29T14:59:28.127Z,27.09
2022-07-29T15:01:58.066Z,26.90
2022-07-29T15:04:27.703Z,27.13
2022-07-29T15:06:54.322Z,26.83
2022-07-29T15:09:22.196Z,27.55
2022-07-29T15:11:48.827Z,27.29
2022-07-29T15:14:15.512Z,27.34
2022-07-29T15:16:44.013Z,27.67
2022-07-29T15:19:13.720Z,27.93
2022-07-29T15:21:41.348Z,27.69
2022-07-29T15:24:14.643Z,27.25
2022-07-29T15:26:41.653Z,26.42
2022-07-29T15:29:08.285Z,26.17
2022-07-29T15:31:34.970Z,26.34
2022-07-29T15:34:05.980Z,25.92
2022-07-29T15:36:51.337Z,26.08
2022-07-29T15:39:23.121Z,26.06
2022-07-29T15:41:50.593Z,25.97
2022-07-29T15:44:17.668Z,26.00
2022-07-29T15:47:02.969Z,25.93
2022-07-29T15:49:46.412Z,25.97
2022-07-29T15:52:13.584Z,26.04
2022-07-29T15:54:41.408Z,25.96
2022-07-29T15:57:10.274Z,26.03
2022-07-29T15:59:36.894Z,25.85
2022-07-29T16:02:03.783Z,26.10
2022-07-29T16:04:30.731Z,26.48
2022-07-29T16:06:57.844Z,26.53
2022-07-29T16:09:24.669Z,26.20
2022-07-29T16:11:53.676Z,25.85
2022-07-29T16:14:21.026Z,25.62
2022-07-29T16:16:48.360Z,25.37
2022-07-29T16:19:15.367Z,24.56
2022-07-29T16:21:42.336Z,24.48
2022-07-29T16:24:09.117Z,24.35
2022-07-29T16:26:45.720Z,23.79
2022-07-29T16:29:12.495Z,23.52
2022-07-29T16:31:39.316Z,24.17
2022-07-29T16:34:05.985Z,23.94
2022-07-29T16:36:35.714Z,23.55
2022-07-29T16:39:02.302Z,23.69
2022-07-29T16:41:29.791Z,24.02
2022-07-29T16:43:56.515Z,24.12
2022-07-29T16:46:24.272Z,23.95
2022-07-29T16:48:52.529Z,24.33
2022-07-29T16:51:19.435Z,24.24
2022-07-29T16:53:46.083Z,24.01
2022-07-29T16:56:16.471Z,23.37
2022-07-29T16:58:44.042Z,23.58
2022-07-29T17:01:11.415Z,24.02
2022-07-29T17:04:00.193Z,24.50
2022-07-29T17:06:29.457Z,25.76
2022-07-29T17:08:56.761Z,26.15
2022-07-29T17:11:52.609Z,26.21
2022-07-29T17:14:10.403Z,26.71
2022-07-29T17:16:37.123Z,26.80
2022-07-29T17:19:03.876Z,26.61
2022-07-29T17:21:30.446Z,27.08
2022-07-29T17:23:58.902Z,26.97
2022-07-29T17:26:27.533Z,27.70
2022-07-29T17:28:55.470Z,28.08
2022-07-29T17:31:22.673Z,28.78
2022-07-29T17:33:49.340Z,29.39
2022-07-29T17:36:24.877Z,29.91
2022-07-29T17:38:53.331Z,30.55
2022-07-29T17:41:21.256Z,30.80
2022-07-29T17:43:48.718Z,30.94
2022-07-29T17:46:15.869Z,31.22
2022-07-29T17:48:42.791Z,31.33
2022-07-29T17:51:09.950Z,31.67
2022-07-29T17:53:37.392Z,31.92
2022-07-29T17:56:05.052Z,31.68
2022-07-29T17:58:32.609Z,32.24
2022-07-29T18:00:59.557Z,32.04
2022-07-29T18:03:26.638Z,31.71
2022-07-29T18:05:53.811Z,31.88
2022-07-29T18:08:20.530Z,32.24
2022-07-29T18:10:47.175Z,32.75
2022-07-29T18:13:14.008Z,32.68
2022-07-29T18:15:41.092Z,32.67
2022-07-29T18:18:08.465Z,32.96
2022-07-29T18:20:35.203Z,33.05
2022-07-29T18:23:02.204Z,33.12
2022-07-29T18:25:29.040Z,33.22
2022-07-29T18:28:00.173Z,33.65
2022-07-29T18:30:27.868Z,34.12
2022-07-29T18:33:19.197Z,34.08
2022-07-29T18:35:41.096Z,34.29
2022-07-29T18:38:07.783Z,34.53
2022-07-29T18:40:34.548Z,34.84
2022-07-29T18:43:01.354Z,34.78
2022-07-29T18:45:28.768Z,35.11
2022-07-29T18:47:56.515Z,35.22
2022-07-29T18:50:28.867Z,35.48
2022-07-29T18:52:58.808Z,35.72
2022-07-29T18:55:26.159Z,35.95
2022-07-29T18:57:55.708Z,36.10
2022-07-29T19:00:24.032Z,36.34
2022-07-29T19:02:51.515Z,36.56
2022-07-29T19:05:18.760Z,36.46
2022-07-29T19:07:45.609Z,36.76
2022-07-29T19:10:12.371Z,37.01
2022-07-29T19:12:39.266Z,37.08
2022-07-29T19:15:07.640Z,37.26
2022-07-29T19:17:34.266Z,37.16
2022-07-29T19:20:01.065Z,37.33
2022-07-29T19:22:28.333Z,37.53
2022-07-29T19:24:54.960Z,37.74
2022-07-29T19:27:21.637Z,37.99
2022-07-29T19:29:48.363Z,38.00
2022-07-29T19:32:24.979Z,38.53
2022-07-29T19:35:11.282Z,38.24
2022-07-29T19:37:38.005Z,38.43
2022-07-29T19:40:06.339Z,38.88
2022-07-29T19:42:33.111Z,38.50
2022-07-29T19:45:00.088Z,39.15
2022-07-29T19:47:26.792Z,39.08
2022-07-29T19:49:53.492Z,39.38
2022-07-29T19:52:20.216Z,39.19
2022-07-29T19:54:46.867Z,39.68
2022-07-29T19:57:13.617Z,39.76
2022-07-29T19:59:41.255Z,39.98
2022-07-29T20:02:13.214Z,39.88
2022-07-29T20:04:40.344Z,40.02
2022-07-29T20:07:07.455Z,40.48
2022-07-29T20:09:34.420Z,40.82
2022-07-29T20:12:01.091Z,41.08
2022-07-29T20:14:27.779Z,40.89
2022-07-29T20:16:57.569Z,41.46
2022-07-29T20:19:28.357Z,41.76
2022-07-29T20:21:55.018Z,41.87
2022-07-29T20:24:24.661Z,41.94
2022-07-29T20:26:53.966Z,42.24
2022-07-29T20:29:23.699Z,42.29
2022-07-29T20:31:53.280Z,42.64
2022-07-29T20:34:23.022Z,42.86
2022-07-29T20:36:49.675Z,42.87
2022-07-29T20:39:16.490Z,43.06
2022-07-29T20:41:43.191Z,43.30
2022-07-29T20:44:09.827Z,43.30
2022-07-29T20:46:36.580Z,43.48
2022-07-29T20:49:03.377Z,43.51
2022-07-29T20:51:30.291Z,43.62
2022-07-29T20:54:00.116Z,43.69
2022-07-29T20:56:27.109Z,43.67
2022-07-29T20:58:54.017Z,43.47
2022-07-29T21:01:20.879Z,43.83
2022-07-29T21:03:48.056Z,43.85
2022-07-29T21:06:16.186Z,43.86
2022-07-29T21:08:43.147Z,43.73
2022-07-29T21:11:10.625Z,44.13
2022-07-29T21:13:40.091Z,44.07
2022-07-29T21:16:15.229Z,44.29
2022-07-29T21:18:44.301Z,44.47
2022-07-29T21:21:10.927Z,44.61
2022-07-29T21:23:41.060Z,44.93
2022-07-29T21:26:12.576Z,44.93
2022-07-29T21:28:43.694Z,45.08
2022-07-29T21:31:14.996Z,44.97
2022-07-29T21:33:47.492Z,44.93
2022-07-29T21:36:47.385Z,45.01
2022-07-29T21:39:07.052Z,44.77
2022-07-29T21:41:37.504Z,45.04
2022-07-29T21:44:04.332Z,44.93
2022-07-29T21:46:31.015Z,45.09
2022-07-29T21:49:00.914Z,45.34
2022-07-29T21:51:30.639Z,45.55
2022-07-29T21:53:57.294Z,45.56
2022-07-29T21:56:24.590Z,45.84
2022-07-29T21:58:54.776Z,45.74
2022-07-29T22:01:27.247Z,45.95
2022-07-29T22:03:54.090Z,46.12
2022-07-29T22:06:21.023Z,46.19
2022-07-29T22:08:48.113Z,46.33
2022-07-29T22:11:14.797Z,46.82
2022-07-29T22:13:43.596Z,46.94
2022-07-29T22:16:14.849Z,47.36
2022-07-29T22:18:45.073Z,47.11
2022-07-29T22:21:11.768Z,47.10
2022-07-29T22:23:38.919Z,47.48
2022-07-29T22:26:05.600Z,47.42
2022-07-29T22:28:32.429Z,47.50
2022-07-29T22:30:59.142Z,47.33
2022-07-29T22:33:25.803Z,47.46
2022-07-29T22:35:52.495Z,47.44
2022-07-29T22:38:19.138Z,47.59
2022-07-29T22:40:47.003Z,47.63
2022-07-29T22:43:15.553Z,47.81
2022-07-29T22:45:42.279Z,47.74
2022-07-29T22:48:09.039Z,47.92
2022-07-29T22:50:35.631Z,48.14
2022-07-29T22:53:02.342Z,48.27
2022-07-29T22:55:28.925Z,48.37
2022-07-29T22:57:55.548Z,48.44
2022-07-29T23:00:22.186Z,48.62
2022-07-29T23:02:48.768Z,48.57
2022-07-29T23:05:15.935Z,48.66
2022-07-29T23:07:42.753Z,48.80
2022-07-29T23:10:09.907Z,49.09
2022-07-29T23:12:36.512Z,49.24
2022-07-29T23:15:04.559Z,49.22
2022-07-29T23:17:36.337Z,49.28
2022-07-29T23:20:08.028Z,49.36
2022-07-29T23:22:36.123Z,49.36
2022-07-29T23:25:02.910Z,49.54
2022-07-29T23:27:29.582Z,49.53
2022-07-29T23:29:56.257Z,49.73
2022-07-29T23:32:22.859Z,49.67
2022-07-29T23:34:49.571Z,49.69
2022-07-29T23:37:21.630Z,49.87
2022-07-29T23:39:48.243Z,49.90
2022-07-29T23:42:14.868Z,50.04
2022-07-29T23:44:41.507Z,50.17
2022-07-29T23:47:10.521Z,50.28
2022-07-29T23:49:37.253Z,50.19
2022-07-29T23:52:08.879Z,50.40
2022-07-29T23:54:35.638Z,50.44
2022-07-29T23:57:02.714Z,50.48
